Time;durP1;ratioP1;P1;durP2;ratioP2;P2;SDS_P1;SDS_P2;PMS_P1;PMS_P2;Temp;Humidity;BMP_temperature;BMP_pressure;BME280_temperature;BME280_humidity;BME280_pressure;Samples;Min_cycle;Max_cycle;Signal;HPM_P1;HPM_P2
2021/05/24 00:01:04;;;;;;;2.22;0.95;;;11.80;88.50;;;;;;5029737;28;20338;-66
2021/05/24 00:03:32;;;;;;;3.95;1.40;;;11.70;88.40;;;;;;5031513;28;20091;-66
2021/05/24 00:05:58;;;;;;;3.33;1.08;;;11.80;88.30;;;;;;5023645;28;20378;-66
2021/05/24 00:08:24;;;;;;;4.47;1.23;;;11.70;88.00;;;;;;5032026;28;20095;-66
2021/05/24 00:10:50;;;;;;;4.50;1.25;;;11.80;87.90;;;;;;5026744;28;20088;-66
2021/05/24 00:13:18;;;;;;;4.70;1.00;;;11.80;88.00;;;;;;5033739;28;20053;-66
2021/05/24 00:15:46;;;;;;;2.92;1.23;;;11.80;88.10;;;;;;5025034;28;20039;-66
2021/05/24 00:18:14;;;;;;;5.82;1.75;;;11.80;88.20;;;;;;5032637;28;20049;-66
2021/05/24 00:20:43;;;;;;;3.00;1.10;;;11.80;88.80;;;;;;5023821;28;20133;-66
2021/05/24 00:23:09;;;;;;;4.47;1.20;;;11.80;89.20;;;;;;5032736;28;20041;-66
2021/05/24 00:25:35;;;;;;;5.13;1.30;;;11.80;89.70;;;;;;5028082;28;20060;-66
2021/05/24 00:28:01;;;;;;;4.60;1.50;;;11.80;90.40;;;;;;5029200;28;20034;-67
2021/05/24 00:30:32;;;;;;;4.07;1.27;;;11.70;90.50;;;;;;5025984;28;20129;-66
2021/05/24 00:33:00;;;;;;;4.00;1.30;;;11.60;90.60;;;;;;5026876;28;20040;-66
2021/05/24 00:35:25;;;;;;;5.05;1.38;;;11.60;90.90;;;;;;5026690;28;20029;-66
2021/05/24 00:37:51;;;;;;;4.43;1.67;;;11.60;91.00;;;;;;5025442;28;20129;-66
2021/05/24 00:40:17;;;;;;;5.97;1.58;;;11.50;91.20;;;;;;5034979;28;20120;-66
2021/05/24 00:42:43;;;;;;;3.05;1.17;;;11.50;91.70;;;;;;5025494;28;20037;-66
2021/05/24 00:45:09;;;;;;;5.28;1.42;;;11.40;91.70;;;;;;5031681;28;20041;-66
2021/05/24 00:47:35;;;;;;;5.03;1.48;;;11.40;91.90;;;;;;5023948;28;20397;-66
2021/05/24 00:50:01;;;;;;;8.07;1.95;;;11.40;92.30;;;;;;5034256;28;20048;-65
2021/05/24 00:52:28;;;;;;;4.72;1.55;;;11.30;92.20;;;;;;5018962;28;20041;-66
2021/05/24 00:54:53;;;;;;;4.25;1.83;;;11.30;92.40;;;;;;5032783;28;20041;-66
2021/05/24 00:57:20;;;;;;;4.40;1.52;;;11.30;92.50;;;;;;5023305;28;20053;-66
2021/05/24 00:59:46;;;;;;;4.07;1.83;;;11.30;92.80;;;;;;5029209;28;20045;-65
2021/05/24 01:02:12;;;;;;;3.83;1.40;;;11.20;92.70;;;;;;5025325;28;20092;-65
2021/05/24 01:04:38;;;;;;;5.85;1.60;;;11.20;92.80;;;;;;5030166;28;20042;-65
2021/05/24 01:07:04;;;;;;;3.88;1.30;;;11.20;92.90;;;;;;5028732;28;20029;-65
2021/05/24 01:09:31;;;;;;;4.22;1.55;;;11.20;93.20;;;;;;5027875;28;20116;-66
2021/05/24 01:11:57;;;;;;;5.03;1.23;;;11.10;93.10;;;;;;5031599;28;20540;-66
2021/05/24 01:14:24;;;;;;;5.00;1.58;;;11.10;93.00;;;;;;5034699;28;20045;-66
2021/05/24 01:16:52;;;;;;;3.58;1.52;;;11.10;93.10;;;;;;5035412;28;20048;-66
2021/05/24 01:19:19;;;;;;;5.32;1.55;;;11.00;93.00;;;;;;5025135;28;20033;-66
2021/05/24 01:21:46;;;;;;;5.47;1.75;;;11.10;92.90;;;;;;5019693;28;20169;-66
2021/05/24 01:24:12;;;;;;;4.00;1.48;;;11.10;93.00;;;;;;5017473;28;20030;-66
2021/05/24 01:26:38;;;;;;;7.75;2.20;;;11.10;93.00;;;;;;5028462;28;20033;-66
2021/05/24 01:29:05;;;;;;;4.70;1.45;;;11.10;93.10;;;;;;5027398;28;20139;-66
2021/05/24 01:31:31;;;;;;;4.30;1.30;;;11.10;92.80;;;;;;5033006;28;20532;-66
2021/05/24 01:33:58;;;;;;;4.38;1.60;;;11.10;92.70;;;;;;5021596;28;20076;-66
2021/05/24 01:36:27;;;;;;;6.55;1.77;;;11.10;92.90;;;;;;5023753;28;20083;-66
2021/05/24 01:38:54;;;;;;;5.25;1.50;;;11.20;92.80;;;;;;5027672;28;20481;-66
2021/05/24 01:41:21;;;;;;;5.22;1.50;;;11.10;92.90;;;;;;5029288;28;20140;-66
2021/05/24 01:43:47;;;;;;;4.88;2.08;;;11.10;93.10;;;;;;5023045;28;20046;-65
2021/05/24 01:46:13;;;;;;;5.18;1.65;;;11.20;93.40;;;;;;5032682;28;20097;-65
2021/05/24 01:48:40;;;;;;;4.88;1.98;;;11.10;93.60;;;;;;5039835;28;20032;-65
2021/05/24 01:51:07;;;;;;;4.53;1.58;;;11.10;93.60;;;;;;5024337;28;20098;-65
2021/05/24 01:53:35;;;;;;;4.82;1.73;;;11.00;93.80;;;;;;5029576;28;20064;-65
2021/05/24 01:56:02;;;;;;;6.13;2.10;;;11.00;93.90;;;;;;5021429;28;20064;-66
2021/05/24 01:58:30;;;;;;;5.43;2.10;;;11.00;93.80;;;;;;5031740;28;20398;-66
2021/05/24 02:01:09;;;;;;;3.83;2.00;;;11.00;93.90;;;;;;5025676;28;20072;-65
2021/05/24 02:03:37;;;;;;;5.32;2.10;;;11.00;94.40;;;;;;5024677;28;20065;-65
2021/05/24 02:06:03;;;;;;;7.65;1.83;;;11.00;94.40;;;;;;5019708;28;20481;-66
2021/05/24 02:08:29;;;;;;;4.00;1.90;;;10.90;94.40;;;;;;5030893;28;20044;-66
2021/05/24 02:10:55;;;;;;;3.83;1.83;;;10.90;94.60;;;;;;5022063;28;20073;-65
2021/05/24 02:13:22;;;;;;;4.93;1.55;;;10.90;94.70;;;;;;5029292;28;20041;-65
2021/05/24 02:15:47;;;;;;;5.80;2.00;;;10.90;95.10;;;;;;5024652;28;20140;-66
2021/05/24 02:18:13;;;;;;;4.90;2.30;;;10.90;95.00;;;;;;5034474;28;20176;-66
2021/05/24 02:20:39;;;;;;;4.03;2.05;;;10.90;95.10;;;;;;5019057;28;20045;-66
2021/05/24 02:23:07;;;;;;;6.05;2.08;;;10.80;95.20;;;;;;5031706;28;20041;-66
2021/05/24 02:25:34;;;;;;;4.85;1.95;;;10.90;95.30;;;;;;5025324;28;20103;-66
2021/05/24 02:28:00;;;;;;;3.17;2.20;;;10.90;95.50;;;;;;5032341;28;20088;-66
2021/05/24 02:30:27;;;;;;;3.38;1.63;;;10.90;95.60;;;;;;5021204;28;20468;-66
2021/05/24 02:32:54;;;;;;;5.00;1.90;;;10.80;95.60;;;;;;5030733;28;20033;-66
2021/05/24 02:35:23;;;;;;;5.25;2.30;;;10.80;95.70;;;;;;5027011;28;20378;-66
2021/05/24 02:37:49;;;;;;;3.60;1.73;;;10.80;95.80;;;;;;5026767;28;20128;-66
2021/05/24 02:40:17;;;;;;;4.53;2.10;;;10.80;95.90;;;;;;5033336;28;20103;-67
2021/05/24 02:42:44;;;;;;;5.70;2.28;;;10.70;95.90;;;;;;5015236;28;20049;-67
2021/05/24 02:45:11;;;;;;;4.70;1.77;;;10.70;95.90;;;;;;5037800;28;20084;-67
2021/05/24 02:47:37;;;;;;;4.22;2.00;;;10.70;95.80;;;;;;5027429;28;20288;-67
2021/05/24 02:50:05;;;;;;;5.75;1.90;;;10.70;95.80;;;;;;5025700;28;20436;-67
2021/05/24 02:52:31;;;;;;;4.35;2.00;;;10.70;96.00;;;;;;5022642;28;20075;-67
2021/05/24 02:54:57;;;;;;;4.93;1.58;;;10.70;95.90;;;;;;5036202;28;20069;-67
2021/05/24 02:57:23;;;;;;;5.53;1.98;;;10.70;96.00;;;;;;5023404;28;20510;-67
2021/05/24 02:59:49;;;;;;;6.00;1.55;;;10.70;96.00;;;;;;5030552;28;20054;-67
2021/05/24 03:02:16;;;;;;;3.85;1.55;;;10.60;95.90;;;;;;5029472;28;20503;-68
2021/05/24 03:04:42;;;;;;;4.72;1.30;;;10.60;95.80;;;;;;5029565;28;20050;-67
2021/05/24 03:07:08;;;;;;;3.45;1.75;;;10.60;95.70;;;;;;5029161;28;20029;-68
2021/05/24 03:09:34;;;;;;;3.70;1.33;;;10.70;95.50;;;;;;5038277;28;20087;-68
2021/05/24 03:12:00;;;;;;;4.60;1.40;;;10.70;95.40;;;;;;5025536;28;20060;-68
2021/05/24 03:14:26;;;;;;;3.58;1.10;;;10.70;95.30;;;;;;5024964;28;20041;-68
2021/05/24 03:16:52;;;;;;;5.32;1.38;;;10.80;95.10;;;;;;5035532;28;20034;-68
2021/05/24 03:19:17;;;;;;;3.95;1.10;;;10.80;95.00;;;;;;5032827;28;20087;-68
2021/05/24 03:21:44;;;;;;;4.43;1.05;;;10.90;94.90;;;;;;5029037;28;20520;-67
2021/05/24 03:24:11;;;;;;;6.13;1.35;;;10.90;94.60;;;;;;5025610;28;20038;-68
2021/05/24 03:26:37;;;;;;;4.88;1.15;;;10.90;94.70;;;;;;5033011;28;20163;-68
2021/05/24 03:29:04;;;;;;;3.70;0.93;;;10.90;94.80;;;;;;5028781;28;20439;-68
2021/05/24 03:31:30;;;;;;;3.97;1.20;;;10.90;94.70;;;;;;5037132;28;20401;-68
2021/05/24 03:33:56;;;;;;;3.35;0.80;;;10.90;94.50;;;;;;5030556;28;20046;-68
2021/05/24 03:36:22;;;;;;;5.05;1.10;;;10.90;94.50;;;;;;5040757;28;20033;-68
2021/05/24 03:38:48;;;;;;;1.70;0.52;;;11.00;94.50;;;;;;5023174;28;20457;-68
2021/05/24 03:41:15;;;;;;;4.82;1.00;;;11.00;94.30;;;;;;5044261;28;20460;-68
2021/05/24 03:43:45;;;;;;;2.08;0.57;;;11.00;94.10;;;;;;5028001;28;20045;-68
2021/05/24 03:46:11;;;;;;;3.33;1.15;;;11.00;94.20;;;;;;5035503;28;20412;-68
2021/05/24 03:48:37;;;;;;;2.67;0.80;;;11.00;94.10;;;;;;5023185;28;20042;-68
2021/05/24 03:51:05;;;;;;;3.40;0.80;;;11.00;94.20;;;;;;5029405;28;20098;-68
2021/05/24 03:53:30;;;;;;;3.60;0.93;;;11.10;94.10;;;;;;5030723;28;20098;-68
2021/05/24 03:55:57;;;;;;;2.60;0.80;;;11.00;94.10;;;;;;5020402;28;20057;-68
2021/05/24 03:58:23;;;;;;;2.35;0.77;;;11.10;93.90;;;;;;5026674;28;20437;-68
2021/05/24 04:00:49;;;;;;;3.90;0.80;;;11.10;93.90;;;;;;5028145;28;20083;-68
2021/05/24 04:03:15;;;;;;;2.60;0.80;;;11.20;93.90;;;;;;5037395;28;20073;-68
2021/05/24 04:05:42;;;;;;;4.25;0.82;;;11.20;93.90;;;;;;5019428;28;20112;-68
2021/05/24 04:08:09;;;;;;;2.63;0.70;;;11.20;93.80;;;;;;5024938;28;20072;-68
2021/05/24 04:10:46;;;;;;;4.05;1.00;;;11.20;93.80;;;;;;5029275;28;20137;-68
2021/05/24 04:13:12;;;;;;;3.30;0.80;;;11.20;93.70;;;;;;5029918;28;20143;-68
2021/05/24 04:15:39;;;;;;;3.72;1.00;;;11.20;93.60;;;;;;5025807;28;20056;-67
2021/05/24 04:18:12;;;;;;;1.98;0.85;;;11.20;93.60;;;;;;5035405;28;20032;-67
2021/05/24 04:20:38;;;;;;;2.60;0.80;;;11.30;93.60;;;;;;5027010;28;20034;-67
2021/05/24 04:23:03;;;;;;;3.65;1.13;;;11.30;93.60;;;;;;5029637;28;20395;-67
2021/05/24 04:25:29;;;;;;;2.70;0.70;;;11.30;93.50;;;;;;5023377;28;20111;-67
2021/05/24 04:27:55;;;;;;;2.58;0.60;;;11.30;93.20;;;;;;5031585;28;20102;-67
2021/05/24 04:30:21;;;;;;;2.63;0.70;;;11.40;93.10;;;;;;5027386;28;20071;-67
2021/05/24 04:32:46;;;;;;;2.88;0.75;;;11.40;93.10;;;;;;5025220;28;20045;-67
2021/05/24 04:35:14;;;;;;;4.72;0.85;;;11.40;93.10;;;;;;5037858;28;20044;-67
2021/05/24 04:37:40;;;;;;;2.38;0.70;;;11.40;93.10;;;;;;5035131;28;20373;-67
2021/05/24 04:40:06;;;;;;;3.40;0.80;;;11.50;93.20;;;;;;5027808;28;20049;-67
2021/05/24 04:42:32;;;;;;;3.60;0.93;;;11.50;92.90;;;;;;5023716;28;20056;-68
2021/05/24 04:44:58;;;;;;;2.85;0.93;;;11.60;92.80;;;;;;5029566;28;20041;-67
2021/05/24 04:47:24;;;;;;;2.58;0.60;;;11.60;92.90;;;;;;5021707;28;20512;-67
2021/05/24 04:49:50;;;;;;;4.47;0.60;;;11.60;92.90;;;;;;5029798;28;20038;-67
2021/05/24 04:52:17;;;;;;;2.78;0.68;;;11.60;92.80;;;;;;5026307;28;20135;-67
2021/05/24 04:54:43;;;;;;;2.47;0.88;;;11.70;92.70;;;;;;5025610;28;20495;-67
2021/05/24 04:57:10;;;;;;;5.95;1.00;;;11.70;92.80;;;;;;5021840;28;20037;-67
2021/05/24 04:59:36;;;;;;;4.65;0.70;;;11.70;92.90;;;;;;5039250;28;20040;-67
2021/05/24 05:02:02;;;;;;;2.45;0.70;;;11.70;93.20;;;;;;5025529;28;20045;-67
2021/05/24 05:04:28;;;;;;;3.33;0.77;;;11.70;93.00;;;;;;5030564;28;20056;-67
2021/05/24 05:06:55;;;;;;;3.10;0.55;;;11.70;93.00;;;;;;5030347;28;20049;-67
2021/05/24 05:09:21;;;;;;;3.50;0.75;;;11.70;93.10;;;;;;5032682;28;20045;-67
2021/05/24 05:11:47;;;;;;;5.15;0.82;;;11.70;93.30;;;;;;5021933;28;20071;-68
2021/05/24 05:14:13;;;;;;;3.35;1.10;;;11.70;93.30;;;;;;5034152;28;20105;-67
2021/05/24 05:16:38;;;;;;;3.08;0.85;;;11.70;93.40;;;;;;5031290;28;20463;-67
2021/05/24 05:19:04;;;;;;;4.22;0.77;;;11.70;93.50;;;;;;5019715;28;20108;-67
2021/05/24 05:21:30;;;;;;;3.88;1.02;;;11.70;93.60;;;;;;5035691;28;20072;-67
2021/05/24 05:23:56;;;;;;;2.72;0.70;;;11.70;93.60;;;;;;5028072;28;20049;-67
2021/05/24 05:26:22;;;;;;;2.97;0.70;;;11.80;93.50;;;;;;5026505;28;20045;-67
2021/05/24 05:28:48;;;;;;;3.85;0.90;;;11.80;93.40;;;;;;5021850;28;20051;-67
2021/05/24 05:31:14;;;;;;;4.18;0.88;;;11.90;93.20;;;;;;5033597;28;20440;-67
2021/05/24 05:33:40;;;;;;;2.28;0.98;;;11.90;93.20;;;;;;5022765;28;20471;-67
2021/05/24 05:36:06;;;;;;;1.48;0.60;;;12.00;93.20;;;;;;5032406;28;20124;-67
2021/05/24 05:38:33;;;;;;;4.13;0.90;;;12.00;93.10;;;;;;5023650;28;20053;-67
2021/05/24 05:40:59;;;;;;;2.92;0.75;;;12.10;93.20;;;;;;5025544;28;20084;-67
2021/05/24 05:43:25;;;;;;;2.90;0.70;;;12.10;93.10;;;;;;5022291;28;20072;-67
2021/05/24 05:45:51;;;;;;;3.40;0.80;;;12.20;93.10;;;;;;5029944;28;20081;-67
2021/05/24 05:48:17;;;;;;;1.77;0.70;;;12.20;93.20;;;;;;5023062;28;20041;-67
2021/05/24 05:50:43;;;;;;;7.90;1.40;;;12.20;93.20;;;;;;5027028;28;20108;-67
2021/05/24 05:53:09;;;;;;;2.95;0.80;;;12.30;93.30;;;;;;5028788;28;20499;-67
2021/05/24 05:55:35;;;;;;;4.38;0.70;;;12.30;93.30;;;;;;5018246;28;20088;-67
2021/05/24 05:58:00;;;;;;;2.45;0.90;;;12.40;93.20;;;;;;5025045;28;20040;-68
2021/05/24 06:00:27;;;;;;;3.95;0.82;;;12.40;93.10;;;;;;5020134;28;20532;-68
2021/05/24 06:02:53;;;;;;;3.35;0.70;;;12.50;93.20;;;;;;5031869;28;20036;-68
2021/05/24 06:05:19;;;;;;;4.28;0.80;;;12.60;93.10;;;;;;5023941;28;20552;-68
2021/05/24 06:07:45;;;;;;;1.80;0.70;;;12.60;92.80;;;;;;5025557;28;20044;-68
2021/05/24 06:10:13;;;;;;;2.50;0.60;;;12.70;92.70;;;;;;5022199;28;20146;-68
2021/05/24 06:12:39;;;;;;;2.58;0.70;;;12.80;92.50;;;;;;5026228;28;20057;-68
2021/05/24 06:15:08;;;;;;;3.58;0.90;;;12.80;92.50;;;;;;5020263;28;20069;-68
2021/05/24 06:17:34;;;;;;;2.63;0.80;;;13.00;92.10;;;;;;5026107;28;20308;-68
2021/05/24 06:19:59;;;;;;;6.30;1.38;;;13.00;92.00;;;;;;5029851;28;20045;-68
2021/05/24 06:22:25;;;;;;;3.78;0.60;;;13.20;91.80;;;;;;5032645;28;20583;-68
2021/05/24 06:24:51;;;;;;;2.35;0.85;;;13.20;91.40;;;;;;5030381;28;20111;-69
2021/05/24 06:27:17;;;;;;;2.58;0.68;;;13.30;91.30;;;;;;5035695;28;20524;-68
2021/05/24 06:29:42;;;;;;;6.47;0.75;;;13.30;91.20;;;;;;5018125;28;20079;-68
2021/05/24 06:32:08;;;;;;;2.42;0.63;;;13.40;91.30;;;;;;5031058;28;20470;-68
2021/05/24 06:34:34;;;;;;;4.07;0.80;;;13.50;91.30;;;;;;5037500;28;20501;-68
2021/05/24 06:37:00;;;;;;;3.75;0.60;;;13.60;91.20;;;;;;5025976;28;20104;-68
2021/05/24 06:39:26;;;;;;;2.80;0.60;;;13.60;91.20;;;;;;5022480;28;20094;-68
2021/05/24 06:41:51;;;;;;;2.75;0.43;;;13.70;91.00;;;;;;5019309;28;20029;-68
2021/05/24 06:44:18;;;;;;;1.17;0.50;;;13.70;90.70;;;;;;5034111;28;20071;-68
2021/05/24 06:46:50;;;;;;;2.15;0.55;;;13.80;90.60;;;;;;5020241;28;20429;-68
2021/05/24 06:49:23;;;;;;;2.33;0.60;;;13.80;90.50;;;;;;5030381;28;20040;-68
2021/05/24 06:51:56;;;;;;;2.83;0.70;;;13.90;90.40;;;;;;5027368;28;20056;-68
2021/05/24 06:54:39;;;;;;;1.73;0.40;;;13.90;90.50;;;;;;5033137;28;20033;-68
2021/05/24 06:57:20;;;;;;;4.13;0.63;;;14.00;90.60;;;;;;5019310;28;20168;-68
2021/05/24 06:59:51;;;;;;;2.65;0.63;;;14.20;90.80;;;;;;5029133;28;20033;-68
2021/05/24 07:02:17;;;;;;;2.97;1.40;;;14.30;90.30;;;;;;5023804;28;20620;-68
2021/05/24 07:04:44;;;;;;;1.92;0.40;;;14.40;90.00;;;;;;5025528;28;20042;-68
2021/05/24 07:07:10;;;;;;;2.17;0.55;;;14.50;89.70;;;;;;5020591;28;20511;-68
2021/05/24 07:09:36;;;;;;;3.22;1.00;;;14.70;89.70;;;;;;5029111;28;20045;-68
2021/05/24 07:12:11;;;;;;;2.03;0.50;;;14.80;89.10;;;;;;5022688;28;20041;-68
2021/05/24 07:14:53;;;;;;;2.92;0.80;;;15.00;88.40;;;;;;5029216;28;20053;-68
2021/05/24 07:17:32;;;;;;;4.85;0.73;;;15.10;88.60;;;;;;5023822;28;20061;-68
2021/05/24 07:20:13;;;;;;;3.40;0.60;;;15.20;88.10;;;;;;5026914;28;20048;-68
2021/05/24 07:22:52;;;;;;;2.50;0.95;;;15.30;88.30;;;;;;5020084;28;20378;-68
2021/05/24 07:25:32;;;;;;;2.47;0.65;;;15.40;88.00;;;;;;5030112;28;20041;-68
2021/05/24 07:28:04;;;;;;;4.78;0.50;;;15.50;86.10;;;;;;5027116;28;20080;-68
2021/05/24 07:30:30;;;;;;;2.75;0.55;;;15.50;85.10;;;;;;5031725;28;20473;-68
2021/05/24 07:32:56;;;;;;;2.60;0.60;;;15.40;84.40;;;;;;5020401;28;20072;-68
2021/05/24 07:35:21;;;;;;;3.92;0.60;;;15.30;84.40;;;;;;5027120;28;20030;-68
2021/05/24 07:37:47;;;;;;;1.25;0.35;;;15.30;84.40;;;;;;5019315;28;20362;-68
2021/05/24 07:40:13;;;;;;;2.78;0.40;;;15.20;83.50;;;;;;5029155;28;20038;-67
2021/05/24 07:42:41;;;;;;;5.07;0.70;;;15.20;84.70;;;;;;5025845;28;20082;-67
2021/05/24 07:45:07;;;;;;;3.38;0.73;;;15.20;84.60;;;;;;5046647;28;20360;-67
2021/05/24 07:47:33;;;;;;;3.30;0.75;;;15.20;83.60;;;;;;5032537;28;20033;-67
2021/05/24 07:50:00;;;;;;;2.38;0.60;;;15.20;82.80;;;;;;5023246;28;20034;-67
2021/05/24 07:52:26;;;;;;;3.30;0.77;;;15.20;83.80;;;;;;5028436;28;20409;-67
2021/05/24 07:54:52;;;;;;;2.35;0.50;;;15.10;82.70;;;;;;5025764;28;20037;-67
2021/05/24 07:57:18;;;;;;;2.22;0.50;;;15.20;83.30;;;;;;5029880;28;20433;-67
2021/05/24 07:59:43;;;;;;;1.95;0.50;;;15.20;82.50;;;;;;5024019;28;20468;-67
2021/05/24 08:02:09;;;;;;;1.58;0.60;;;15.20;82.70;;;;;;5033025;28;20029;-67
2021/05/24 08:04:35;;;;;;;2.38;0.55;;;15.20;82.30;;;;;;5026530;28;20053;-67
2021/05/24 08:07:02;;;;;;;3.08;0.50;;;15.20;82.00;;;;;;5037386;28;20481;-67
2021/05/24 08:09:28;;;;;;;1.80;0.38;;;15.20;82.40;;;;;;5025384;28;20505;-66
2021/05/24 08:11:55;;;;;;;3.65;0.57;;;15.30;83.10;;;;;;5030087;28;20037;-65
2021/05/24 08:14:21;;;;;;;3.55;0.75;;;15.40;83.20;;;;;;5022596;28;20095;-65
2021/05/24 08:16:47;;;;;;;5.72;0.80;;;15.50;82.70;;;;;;5036815;28;20374;-66
2021/05/24 08:19:14;;;;;;;3.75;0.30;;;15.50;82.20;;;;;;5025935;28;20048;-66
2021/05/24 08:21:47;;;;;;;2.40;0.40;;;15.50;81.00;;;;;;5032777;28;20045;-65
2021/05/24 08:24:13;;;;;;;2.28;0.30;;;15.50;80.80;;;;;;5028066;28;20113;-65
2021/05/24 08:26:39;;;;;;;1.83;0.50;;;15.40;81.90;;;;;;5037192;28;20060;-66
2021/05/24 08:29:06;;;;;;;2.25;0.30;;;15.40;83.10;;;;;;5029382;28;20465;-66
2021/05/24 08:31:34;;;;;;;2.75;0.70;;;15.30;84.90;;;;;;5023555;28;20099;-66
2021/05/24 08:34:00;;;;;;;2.70;0.40;;;15.10;86.60;;;;;;5030025;28;20053;-66
2021/05/24 08:36:27;;;;;;;3.72;0.57;;;14.80;88.40;;;;;;5026414;28;20041;-66
2021/05/24 08:38:53;;;;;;;1.85;0.65;;;14.70;90.10;;;;;;5028208;28;20052;-67
2021/05/24 08:41:19;;;;;;;2.03;0.50;;;14.50;90.80;;;;;;5020157;28;20033;-66
2021/05/24 08:43:45;;;;;;;1.88;0.57;;;14.50;91.60;;;;;;5033088;28;20045;-67
2021/05/24 08:46:11;;;;;;;2.40;0.32;;;14.50;91.90;;;;;;5026537;28;20041;-66
2021/05/24 08:48:37;;;;;;;3.13;0.70;;;14.50;92.10;;;;;;5031841;28;20553;-67
2021/05/24 08:51:08;;;;;;;2.60;0.57;;;14.60;92.20;;;;;;5027644;28;20060;-66
2021/05/24 08:53:38;;;;;;;3.42;1.25;;;14.70;92.20;;;;;;5023807;28;20136;-66
2021/05/24 08:56:06;;;;;;;4.65;0.63;;;14.70;92.20;;;;;;5023987;28;20120;-66
2021/05/24 08:58:32;;;;;;;1.67;0.50;;;14.80;91.80;;;;;;5027390;28;20972;-67
2021/05/24 09:00:57;;;;;;;1.67;0.40;;;14.80;91.60;;;;;;5021291;28;20400;-67
2021/05/24 09:03:31;;;;;;;2.72;0.60;;;14.70;91.10;;;;;;5025154;28;20389;-67
2021/05/24 09:05:59;;;;;;;2.03;0.70;;;14.60;90.90;;;;;;5026396;28;20572;-67
2021/05/24 09:08:36;;;;;;;2.97;0.63;;;14.50;91.00;;;;;;5026140;28;20033;-68
2021/05/24 09:11:04;;;;;;;5.63;1.10;;;14.40;91.10;;;;;;5027798;28;20516;-67
2021/05/24 09:13:32;;;;;;;8.63;0.95;;;14.30;91.20;;;;;;5022351;28;20052;-67
2021/05/24 09:15:59;;;;;;;5.95;1.13;;;14.10;91.30;;;;;;5027748;28;20485;-67
2021/05/24 09:18:25;;;;;;;5.60;0.75;;;14.10;91.50;;;;;;5017631;28;20494;-67
2021/05/24 09:20:52;;;;;;;3.72;0.90;;;14.00;91.90;;;;;;5025482;28;20041;-67
2021/05/24 09:23:30;;;;;;;2.25;0.30;;;13.90;92.00;;;;;;5026587;28;20128;-66
2021/05/24 09:26:10;;;;;;;1.80;0.50;;;13.80;92.10;;;;;;5032233;28;20037;-66
2021/05/24 09:28:51;;;;;;;3.90;0.70;;;13.70;92.10;;;;;;5022517;28;20029;-67
2021/05/24 09:31:26;;;;;;;6.55;0.77;;;13.60;92.30;;;;;;5032871;28;20413;-67
2021/05/24 09:34:05;;;;;;;4.53;0.57;;;13.40;92.50;;;;;;5016124;28;20049;-66
2021/05/24 09:36:32;;;;;;;8.02;1.02;;;13.30;92.80;;;;;;5023409;28;20045;-67
2021/05/24 09:39:01;;;;;;;27.23;2.13;;;13.20;93.00;;;;;;5028314;28;20241;-66
2021/05/24 09:41:27;;;;;;;2.25;1.00;;;13.20;93.40;;;;;;5028876;28;20705;-66
2021/05/24 09:43:54;;;;;;;6.57;1.25;;;13.00;93.50;;;;;;5026331;28;20052;-66
2021/05/24 09:46:23;;;;;;;3.10;0.75;;;13.00;93.90;;;;;;5039024;28;20379;-65
2021/05/24 09:49:00;;;;;;;1.98;0.80;;;12.90;94.00;;;;;;5025296;28;20087;-66
2021/05/24 09:51:27;;;;;;;2.95;0.70;;;13.00;94.30;;;;;;5031830;28;20061;-66
2021/05/24 09:54:09;;;;;;;2.50;0.90;;;12.90;94.40;;;;;;5022455;28;20525;-67
2021/05/24 09:56:48;;;;;;;2.58;0.60;;;13.00;94.70;;;;;;5025247;28;20029;-67
2021/05/24 09:59:21;;;;;;;2.47;1.20;;;13.00;95.10;;;;;;5025976;28;20044;-67
2021/05/24 10:01:52;;;;;;;3.70;1.10;;;13.00;95.20;;;;;;5033938;28;20091;-68
2021/05/24 10:04:28;;;;;;;1.52;0.85;;;13.10;95.40;;;;;;5018399;28;20076;-67
2021/05/24 10:06:54;;;;;;;3.10;0.90;;;13.20;95.50;;;;;;5023228;28;20049;-67
2021/05/24 10:09:21;;;;;;;3.60;1.15;;;13.30;95.90;;;;;;5025154;28;20064;-66
2021/05/24 10:11:49;;;;;;;3.10;0.90;;;13.40;95.70;;;;;;5038004;28;20057;-66
2021/05/24 10:14:19;;;;;;;2.38;1.00;;;13.50;95.70;;;;;;5024064;28;20075;-68
2021/05/24 10:16:49;;;;;;;3.13;1.23;;;13.60;95.70;;;;;;5029815;28;20120;-67
2021/05/24 10:19:17;;;;;;;2.35;0.68;;;13.70;95.80;;;;;;5026757;28;20365;-70
2021/05/24 10:21:47;;;;;;;4.82;1.13;;;13.80;95.70;;;;;;5040257;28;20120;-69
2021/05/24 10:24:15;;;;;;;5.75;2.83;;;13.90;95.70;;;;;;5018836;28;20064;-69
2021/05/24 10:26:43;;;;;;;2.53;1.08;;;14.00;95.80;;;;;;5029658;28;20117;-70
2021/05/24 10:29:10;;;;;;;3.08;0.90;;;14.20;95.70;;;;;;5028126;28;20037;-70
2021/05/24 10:31:36;;;;;;;3.22;1.17;;;14.30;95.20;;;;;;5038224;28;20086;-69
2021/05/24 10:34:14;;;;;;;2.65;0.80;;;14.30;95.10;;;;;;5028714;28;20034;-69
2021/05/24 10:36:41;;;;;;;3.60;1.20;;;14.40;94.80;;;;;;5025299;28;20069;-71
2021/05/24 10:39:27;;;;;;;1.30;0.90;;;14.60;94.90;;;;;;5028633;28;20487;-69
2021/05/24 10:41:55;;;;;;;2.70;1.00;;;14.70;94.80;;;;;;5038379;28;20051;-70
2021/05/24 10:44:37;;;;;;;2.50;1.13;;;14.80;94.70;;;;;;5030661;28;20545;-70
2021/05/24 10:47:26;;;;;;;3.63;0.90;;;14.90;94.40;;;;;;5029318;28;20124;-71
2021/05/24 10:50:05;;;;;;;2.88;1.00;;;14.90;93.70;;;;;;5022267;28;20510;-71
2021/05/24 10:52:37;;;;;;;3.22;0.90;;;14.90;93.70;;;;;;5028372;28;20030;-71
2021/05/24 10:55:25;;;;;;;4.47;1.35;;;14.90;93.40;;;;;;5028591;28;20033;-71
2021/05/24 10:57:58;;;;;;;3.28;1.10;;;14.90;93.50;;;;;;5029372;28;20048;-71
2021/05/24 11:00:24;;;;;;;2.00;0.98;;;15.00;93.40;;;;;;5022274;28;20052;-71
2021/05/24 11:02:52;;;;;;;2.25;0.77;;;15.00;93.30;;;;;;5031998;28;20424;-73
2021/05/24 11:05:31;;;;;;;4.15;0.93;;;15.10;93.20;;;;;;5023001;28;20034;-72
2021/05/24 11:08:01;;;;;;;2.67;1.10;;;15.20;92.90;;;;;;5032771;28;20305;-72
2021/05/24 11:10:33;;;;;;;3.80;1.08;;;15.20;92.70;;;;;;5029695;28;20047;-69
2021/05/24 11:13:11;;;;;;;1.75;1.23;;;15.20;92.00;;;;;;5024006;28;20073;-70
2021/05/24 11:15:39;;;;;;;2.72;1.15;;;15.10;92.10;;;;;;5030466;28;20048;-70
2021/05/24 11:18:05;;;;;;;4.05;1.00;;;15.10;92.40;;;;;;5029627;28;20451;-69
2021/05/24 11:20:44;;;;;;;3.15;1.15;;;15.00;92.30;;;;;;5035205;28;20037;-69
2021/05/24 11:23:44;;;;;;;1.60;1.10;;;15.00;92.20;;;;;;5022448;28;20046;-69
2021/05/24 11:26:26;;;;;;;3.22;1.13;;;14.90;92.60;;;;;;5030349;28;20056;-68
2021/05/24 11:29:07;;;;;;;2.97;1.25;;;14.80;92.90;;;;;;5032591;28;20060;-68
2021/05/24 11:31:39;;;;;;;2.10;1.02;;;14.70;93.10;;;;;;5023971;28;20038;-66
2021/05/24 11:34:09;;;;;;;4.35;1.13;;;14.60;92.90;;;;;;5029493;28;20539;-66
2021/05/24 11:36:35;;;;;;;4.22;1.42;;;14.60;92.90;;;;;;5027813;28;20459;-66
2021/05/24 11:39:19;;;;;;;3.92;1.35;;;14.50;93.20;;;;;;5027361;28;20041;-66
2021/05/24 11:41:59;;;;;;;3.55;1.00;;;14.50;92.90;;;;;;5021963;28;20081;-66
2021/05/24 11:44:52;;;;;;;1.67;0.90;;;14.60;93.00;;;;;;5030685;28;20109;-66
2021/05/24 11:47:23;;;;;;;4.88;1.15;;;14.50;93.20;;;;;;5026626;28;20048;-66
2021/05/24 11:49:55;;;;;;;2.22;1.15;;;14.60;93.60;;;;;;5032982;28;20033;-66
2021/05/24 11:52:27;;;;;;;2.50;1.02;;;14.70;93.50;;;;;;5026728;28;20041;-67
2021/05/24 11:54:53;;;;;;;2.85;0.85;;;14.70;93.50;;;;;;5025500;28;20057;-67
2021/05/24 11:57:21;;;;;;;3.88;0.82;;;14.70;93.30;;;;;;5034372;28;20096;-67
2021/05/24 11:59:48;;;;;;;2.05;0.60;;;14.70;93.70;;;;;;5030263;28;20408;-68
2021/05/24 12:02:14;;;;;;;3.30;0.50;;;14.70;93.20;;;;;;5031694;28;20029;-68
2021/05/24 12:04:43;;;;;;;2.78;0.70;;;14.70;92.90;;;;;;5024177;28;20049;-67
2021/05/24 12:07:13;;;;;;;2.50;0.50;;;14.70;92.80;;;;;;5032403;28;20055;-67
2021/05/24 12:09:43;;;;;;;3.47;0.77;;;14.70;92.80;;;;;;5026359;28;20030;-67
2021/05/24 12:12:24;;;;;;;3.08;1.13;;;14.60;92.70;;;;;;5032782;28;20048;-67
2021/05/24 12:14:55;;;;;;;2.58;0.90;;;14.60;93.20;;;;;;5025624;28;20436;-68
2021/05/24 12:17:26;;;;;;;2.13;0.82;;;14.60;93.20;;;;;;5034784;28;20069;-67
2021/05/24 12:19:54;;;;;;;2.53;1.00;;;14.60;93.50;;;;;;5020060;28;20478;-67
2021/05/24 12:22:27;;;;;;;2.10;0.90;;;14.50;93.50;;;;;;5033888;28;20037;-67
2021/05/24 12:24:56;;;;;;;1.85;1.25;;;14.40;93.30;;;;;;5027318;28;20045;-66
2021/05/24 12:27:26;;;;;;;2.28;0.90;;;14.40;93.70;;;;;;5032602;28;20045;-67
2021/05/24 12:30:08;;;;;;;2.42;0.93;;;14.40;93.80;;;;;;5025888;28;20516;-67
2021/05/24 12:32:40;;;;;;;1.90;0.90;;;14.30;94.10;;;;;;5025392;28;20068;-67
2021/05/24 12:35:15;;;;;;;3.45;0.85;;;14.30;94.20;;;;;;5025620;28;20037;-67
2021/05/24 12:37:49;;;;;;;2.55;1.20;;;14.20;94.40;;;;;;5039813;28;20451;-67
2021/05/24 12:40:16;;;;;;;2.73;1.17;;;14.20;94.60;;;;;;5025278;28;20401;-67
2021/05/24 12:42:42;;;;;;;2.38;1.40;;;14.10;94.60;;;;;;5031075;28;20509;-67
2021/05/24 12:45:11;;;;;;;2.13;0.98;;;14.00;94.40;;;;;;5032717;28;20127;-67
2021/05/24 12:47:37;;;;;;;2.92;1.10;;;14.00;94.80;;;;;;5028202;28;20053;-67
2021/05/24 12:50:15;;;;;;;4.13;2.35;;;14.00;94.90;;;;;;5021681;28;20040;-67
2021/05/24 12:52:42;;;;;;;3.20;1.70;;;14.00;95.10;;;;;;5031738;28;20118;-67
2021/05/24 12:55:18;;;;;;;3.25;1.92;;;13.90;95.50;;;;;;5031033;28;20065;-67